sensor_id;sensor_type;location;lat;lon;timestamp;temperature;humidity
14934;DHT22;7560;51.364;12.384;2023-07-28T00:04:20;17.90;99.90
14934;DHT22;7560;51.364;12.384;2023-07-28T00:09:22;17.90;99.90
14934;DHT22;7560;51.364;12.384;2023-07-28T00:14:25;18.00;99.90
14934;DHT22;7560;51.364;12.384;2023-07-28T00:19:27;17.90;99.90
14934;DHT22;7560;51.364;12.384;2023-07-28T00:24:28;18.00;99.90
14934;DHT22;7560;51.364;12.384;2023-07-28T00:29:30;18.10;99.90
14934;DHT22;7560;51.364;12.384;2023-07-28T00:34:32;18.00;99.90
14934;DHT22;7560;51.364;12.384;2023-07-28T00:39:34;18.10;99.90
14934;DHT22;7560;51.364;12.384;2023-07-28T00:44:35;18.00;99.90
14934;DHT22;7560;51.364;12.384;2023-07-28T00:49:39;18.00;99.90
14934;DHT22;7560;51.364;12.384;2023-07-28T00:54:41;18.00;99.90
14934;DHT22;7560;51.364;12.384;2023-07-28T00:59:43;18.00;99.90
14934;DHT22;7560;51.364;12.384;2023-07-28T01:04:45;18.00;99.90
14934;DHT22;7560;51.364;12.384;2023-07-28T01:10:11;18.00;99.90
14934;DHT22;7560;51.364;12.384;2023-07-28T01:15:14;18.00;99.90
14934;DHT22;7560;51.364;12.384;2023-07-28T01:20:17;18.10;99.90
14934;DHT22;7560;51.364;12.384;2023-07-28T01:30:33;18.20;99.90
14934;DHT22;7560;51.364;12.384;2023-07-28T01:35:36;18.20;99.90
14934;DHT22;7560;51.364;12.384;2023-07-28T01:40:39;18.20;99.90
14934;DHT22;7560;51.364;12.384;2023-07-28T01:45:41;18.20;99.90
14934;DHT22;7560;51.364;12.384;2023-07-28T01:50:42;18.20;99.90
14934;DHT22;7560;51.364;12.384;2023-07-28T01:55:44;18.20;99.90
14934;DHT22;7560;51.364;12.384;2023-07-28T02:00:47;18.20;99.90
14934;DHT22;7560;51.364;12.384;2023-07-28T02:05:49;18.20;99.90
14934;DHT22;7560;51.364;12.384;2023-07-28T02:10:53;18.30;99.90
14934;DHT22;7560;51.364;12.384;2023-07-28T02:15:55;18.30;99.90
14934;DHT22;7560;51.364;12.384;2023-07-28T02:20:56;18.20;99.90
14934;DHT22;7560;51.364;12.384;2023-07-28T02:25:58;18.20;99.90
14934;DHT22;7560;51.364;12.384;2023-07-28T02:31:00;18.20;99.90
14934;DHT22;7560;51.364;12.384;2023-07-28T02:36:05;18.20;99.90
14934;DHT22;7560;51.364;12.384;2023-07-28T02:41:07;18.20;99.90
14934;DHT22;7560;51.364;12.384;2023-07-28T02:46:09;18.20;99.90
14934;DHT22;7560;51.364;12.384;2023-07-28T02:51:11;18.20;99.90
14934;DHT22;7560;51.364;12.384;2023-07-28T02:56:12;18.20;99.90
14934;DHT22;7560;51.364;12.384;2023-07-28T03:01:14;18.30;99.90
14934;DHT22;7560;51.364;12.384;2023-07-28T03:06:16;18.30;99.90
14934;DHT22;7560;51.364;12.384;2023-07-28T03:11:18;18.30;99.90
14934;DHT22;7560;51.364;12.384;2023-07-28T03:16:20;18.30;99.90
14934;DHT22;7560;51.364;12.384;2023-07-28T03:21:21;18.40;99.90
14934;DHT22;7560;51.364;12.384;2023-07-28T03:26:23;18.30;99.90
14934;DHT22;7560;51.364;12.384;2023-07-28T03:31:25;18.30;99.90
14934;DHT22;7560;51.364;12.384;2023-07-28T03:36:27;18.30;99.90
14934;DHT22;7560;51.364;12.384;2023-07-28T03:41:29;18.30;99.90
14934;DHT22;7560;51.364;12.384;2023-07-28T03:46:30;18.30;99.90
14934;DHT22;7560;51.364;12.384;2023-07-28T03:51:32;18.40;99.90
14934;DHT22;7560;51.364;12.384;2023-07-28T03:56:34;18.40;99.90
14934;DHT22;7560;51.364;12.384;2023-07-28T04:01:36;18.40;99.90
14934;DHT22;7560;51.364;12.384;2023-07-28T04:06:46;18.40;99.90
14934;DHT22;7560;51.364;12.384;2023-07-28T04:11:48;18.40;99.90
14934;DHT22;7560;51.364;12.384;2023-07-28T04:16:50;18.40;99.90
14934;DHT22;7560;51.364;12.384;2023-07-28T04:21:52;18.40;99.90
14934;DHT22;7560;51.364;12.384;2023-07-28T04:26:53;18.40;99.90
14934;DHT22;7560;51.364;12.384;2023-07-28T04:31:55;18.40;99.90
14934;DHT22;7560;51.364;12.384;2023-07-28T04:36:57;18.50;99.90
14934;DHT22;7560;51.364;12.384;2023-07-28T04:42:00;18.40;99.90
14934;DHT22;7560;51.364;12.384;2023-07-28T04:47:02;18.30;99.90
14934;DHT22;7560;51.364;12.384;2023-07-28T04:52:04;18.40;99.90
14934;DHT22;7560;51.364;12.384;2023-07-28T04:57:05;18.50;99.90
14934;DHT22;7560;51.364;12.384;2023-07-28T05:02:07;18.50;99.90
14934;DHT22;7560;51.364;12.384;2023-07-28T05:07:09;18.50;99.90
14934;DHT22;7560;51.364;12.384;2023-07-28T05:12:11;18.50;99.90
14934;DHT22;7560;51.364;12.384;2023-07-28T05:17:12;18.50;99.90
14934;DHT22;7560;51.364;12.384;2023-07-28T05:22:16;18.60;99.90
14934;DHT22;7560;51.364;12.384;2023-07-28T05:27:18;18.60;99.90
14934;DHT22;7560;51.364;12.384;2023-07-28T05:32:20;18.70;99.90
14934;DHT22;7560;51.364;12.384;2023-07-28T05:37:22;18.70;99.90
14934;DHT22;7560;51.364;12.384;2023-07-28T05:42:23;18.80;99.90
14934;DHT22;7560;51.364;12.384;2023-07-28T05:47:26;18.90;99.90
14934;DHT22;7560;51.364;12.384;2023-07-28T05:52:27;19.20;99.90
14934;DHT22;7560;51.364;12.384;2023-07-28T05:57:29;19.10;99.90
14934;DHT22;7560;51.364;12.384;2023-07-28T06:02:31;19.00;99.90
14934;DHT22;7560;51.364;12.384;2023-07-28T06:07:33;19.00;99.90
14934;DHT22;7560;51.364;12.384;2023-07-28T06:12:35;19.00;99.90
14934;DHT22;7560;51.364;12.384;2023-07-28T06:17:38;19.30;99.90
14934;DHT22;7560;51.364;12.384;2023-07-28T06:22:39;19.30;99.90
14934;DHT22;7560;51.364;12.384;2023-07-28T06:27:41;19.50;99.90
14934;DHT22;7560;51.364;12.384;2023-07-28T06:32:44;19.70;99.90
14934;DHT22;7560;51.364;12.384;2023-07-28T06:37:46;19.90;99.90
14934;DHT22;7560;51.364;12.384;2023-07-28T06:42:48;20.00;99.90
14934;DHT22;7560;51.364;12.384;2023-07-28T06:47:50;20.30;99.90
14934;DHT22;7560;51.364;12.384;2023-07-28T06:52:53;20.30;99.90
14934;DHT22;7560;51.364;12.384;2023-07-28T06:57:54;20.10;99.90
14934;DHT22;7560;51.364;12.384;2023-07-28T07:02:56;20.30;99.90
14934;DHT22;7560;51.364;12.384;2023-07-28T07:07:58;20.60;99.90
14934;DHT22;7560;51.364;12.384;2023-07-28T07:13:00;20.60;99.90
14934;DHT22;7560;51.364;12.384;2023-07-28T07:18:02;20.40;99.90
14934;DHT22;7560;51.364;12.384;2023-07-28T07:23:07;20.60;99.90
14934;DHT22;7560;51.364;12.384;2023-07-28T07:28:08;21.20;99.90
14934;DHT22;7560;51.364;12.384;2023-07-28T07:33:10;21.30;99.90
14934;DHT22;7560;51.364;12.384;2023-07-28T07:38:12;21.50;99.90
14934;DHT22;7560;51.364;12.384;2023-07-28T07:43:14;21.80;99.90
14934;DHT22;7560;51.364;12.384;2023-07-28T07:48:21;22.00;99.90
14934;DHT22;7560;51.364;12.384;2023-07-28T07:53:23;21.80;99.90
14934;DHT22;7560;51.364;12.384;2023-07-28T07:58:25;21.80;99.90
14934;DHT22;7560;51.364;12.384;2023-07-28T08:03:27;22.00;99.90
14934;DHT22;7560;51.364;12.384;2023-07-28T08:08:29;21.80;99.90
14934;DHT22;7560;51.364;12.384;2023-07-28T08:13:31;22.00;99.90
14934;DHT22;7560;51.364;12.384;2023-07-28T08:18:33;22.00;99.90
14934;DHT22;7560;51.364;12.384;2023-07-28T08:23:35;22.30;99.90
14934;DHT22;7560;51.364;12.384;2023-07-28T08:28:36;22.10;99.90
14934;DHT22;7560;51.364;12.384;2023-07-28T08:33:38;22.40;99.90
14934;DHT22;7560;51.364;12.384;2023-07-28T08:38:40;22.50;99.90
14934;DHT22;7560;51.364;12.384;2023-07-28T08:43:42;22.50;99.90
14934;DHT22;7560;51.364;12.384;2023-07-28T08:48:44;22.50;99.90
14934;DHT22;7560;51.364;12.384;2023-07-28T08:53:47;22.30;99.90
14934;DHT22;7560;51.364;12.384;2023-07-28T08:58:49;22.10;99.90
14934;DHT22;7560;51.364;12.384;2023-07-28T09:03:51;22.00;99.90
14934;DHT22;7560;51.364;12.384;2023-07-28T09:08:56;22.50;99.90
14934;DHT22;7560;51.364;12.384;2023-07-28T09:14:00;22.70;99.90
14934;DHT22;7560;51.364;12.384;2023-07-28T09:19:06;22.40;99.90
14934;DHT22;7560;51.364;12.384;2023-07-28T09:24:13;22.70;99.90
14934;DHT22;7560;51.364;12.384;2023-07-28T09:29:17;22.70;99.90
14934;DHT22;7560;51.364;12.384;2023-07-28T09:34:28;22.70;99.90
14934;DHT22;7560;51.364;12.384;2023-07-28T09:39:30;23.00;99.90
14934;DHT22;7560;51.364;12.384;2023-07-28T09:44:33;23.70;99.90
14934;DHT22;7560;51.364;12.384;2023-07-28T09:49:36;23.80;99.90
14934;DHT22;7560;51.364;12.384;2023-07-28T09:54:40;23.90;99.90
14934;DHT22;7560;51.364;12.384;2023-07-28T09:59:45;23.80;99.90
14934;DHT22;7560;51.364;12.384;2023-07-28T10:04:47;23.60;99.90
14934;DHT22;7560;51.364;12.384;2023-07-28T10:09:48;23.70;99.90
14934;DHT22;7560;51.364;12.384;2023-07-28T10:15:03;23.80;99.90
14934;DHT22;7560;51.364;12.384;2023-07-28T10:25:35;24.00;99.90
14934;DHT22;7560;51.364;12.384;2023-07-28T10:30:50;24.10;99.90
14934;DHT22;7560;51.364;12.384;2023-07-28T10:35:52;24.10;99.90
14934;DHT22;7560;51.364;12.384;2023-07-28T10:41:11;24.10;99.90
14934;DHT22;7560;51.364;12.384;2023-07-28T10:46:17;24.50;99.90
14934;DHT22;7560;51.364;12.384;2023-07-28T10:51:24;24.30;99.90
14934;DHT22;7560;51.364;12.384;2023-07-28T10:56:27;24.50;99.90
14934;DHT22;7560;51.364;12.384;2023-07-28T11:01:33;25.00;99.90
14934;DHT22;7560;51.364;12.384;2023-07-28T11:06:36;24.80;99.90
14934;DHT22;7560;51.364;12.384;2023-07-28T11:11:38;24.30;99.90
14934;DHT22;7560;51.364;12.384;2023-07-28T11:16:41;23.90;99.90
14934;DHT22;7560;51.364;12.384;2023-07-28T11:21:44;24.10;99.90
14934;DHT22;7560;51.364;12.384;2023-07-28T11:26:46;24.30;99.90
14934;DHT22;7560;51.364;12.384;2023-07-28T11:31:48;24.70;99.90
14934;DHT22;7560;51.364;12.384;2023-07-28T11:36:50;25.00;99.90
14934;DHT22;7560;51.364;12.384;2023-07-28T11:41:53;25.20;99.90
14934;DHT22;7560;51.364;12.384;2023-07-28T11:46:56;25.30;99.90
14934;DHT22;7560;51.364;12.384;2023-07-28T11:51:58;25.50;99.90
14934;DHT22;7560;51.364;12.384;2023-07-28T11:57:00;25.70;99.90
14934;DHT22;7560;51.364;12.384;2023-07-28T12:02:04;25.20;99.90
14934;DHT22;7560;51.364;12.384;2023-07-28T12:07:16;25.30;99.90
14934;DHT22;7560;51.364;12.384;2023-07-28T12:12:22;25.20;99.90
14934;DHT22;7560;51.364;12.384;2023-07-28T12:17:26;25.10;99.90
14934;DHT22;7560;51.364;12.384;2023-07-28T12:22:50;25.80;99.90
14934;DHT22;7560;51.364;12.384;2023-07-28T12:27:52;26.20;99.90
14934;DHT22;7560;51.364;12.384;2023-07-28T12:32:54;27.00;99.90
14934;DHT22;7560;51.364;12.384;2023-07-28T12:37:59;26.90;99.90
14934;DHT22;7560;51.364;12.384;2023-07-28T12:43:26;26.70;99.90
14934;DHT22;7560;51.364;12.384;2023-07-28T12:48:30;26.80;99.90
14934;DHT22;7560;51.364;12.384;2023-07-28T12:53:32;26.50;99.90
14934;DHT22;7560;51.364;12.384;2023-07-28T12:58:34;26.50;99.90
14934;DHT22;7560;51.364;12.384;2023-07-28T13:03:39;27.10;99.90
14934;DHT22;7560;51.364;12.384;2023-07-28T13:08:41;27.20;99.90
14934;DHT22;7560;51.364;12.384;2023-07-28T13:13:46;27.00;99.90
14934;DHT22;7560;51.364;12.384;2023-07-28T13:18:48;27.10;99.90
14934;DHT22;7560;51.364;12.384;2023-07-28T13:23:49;27.20;99.90
14934;DHT22;7560;51.364;12.384;2023-07-28T13:28:52;27.50;99.90
14934;DHT22;7560;51.364;12.384;2023-07-28T13:33:54;27.30;99.90
14934;DHT22;7560;51.364;12.384;2023-07-28T13:38:59;27.70;99.90
14934;DHT22;7560;51.364;12.384;2023-07-28T13:44:02;28.10;99.90
14934;DHT22;7560;51.364;12.384;2023-07-28T13:49:04;28.20;99.90
14934;DHT22;7560;51.364;12.384;2023-07-28T13:54:10;28.60;99.90
14934;DHT22;7560;51.364;12.384;2023-07-28T13:59:15;28.60;99.90
14934;DHT22;7560;51.364;12.384;2023-07-28T14:04:17;28.60;99.90
14934;DHT22;7560;51.364;12.384;2023-07-28T14:09:19;28.30;99.90
14934;DHT22;7560;51.364;12.384;2023-07-28T14:14:20;29.00;99.90
14934;DHT22;7560;51.364;12.384;2023-07-28T14:19:22;29.00;99.90
14934;DHT22;7560;51.364;12.384;2023-07-28T14:24:24;29.20;99.90
14934;DHT22;7560;51.364;12.384;2023-07-28T14:29:26;29.80;99.90
14934;DHT22;7560;51.364;12.384;2023-07-28T14:34:28;30.00;99.90
14934;DHT22;7560;51.364;12.384;2023-07-28T14:39:30;29.90;99.90
14934;DHT22;7560;51.364;12.384;2023-07-28T14:44:32;30.60;99.90
14934;DHT22;7560;51.364;12.384;2023-07-28T14:49:34;31.30;99.90
14934;DHT22;7560;51.364;12.384;2023-07-28T14:54:36;30.60;99.90
14934;DHT22;7560;51.364;12.384;2023-07-28T14:59:37;30.40;99.90
14934;DHT22;7560;51.364;12.384;2023-07-28T15:04:39;31.20;99.90
14934;DHT22;7560;51.364;12.384;2023-07-28T15:09:41;30.80;99.90
14934;DHT22;7560;51.364;12.384;2023-07-28T15:14:43;31.00;99.90
14934;DHT22;7560;51.364;12.384;2023-07-28T15:19:44;31.20;99.90
14934;DHT22;7560;51.364;12.384;2023-07-28T15:24:46;31.40;99.90
14934;DHT22;7560;51.364;12.384;2023-07-28T15:29:48;31.00;99.90
14934;DHT22;7560;51.364;12.384;2023-07-28T15:34:50;31.10;99.90
14934;DHT22;7560;51.364;12.384;2023-07-28T15:39:52;30.90;99.90
14934;DHT22;7560;51.364;12.384;2023-07-28T15:44:53;30.90;99.90
14934;DHT22;7560;51.364;12.384;2023-07-28T15:49:55;31.00;99.90
14934;DHT22;7560;51.364;12.384;2023-07-28T15:54:57;30.50;99.90
14934;DHT22;7560;51.364;12.384;2023-07-28T15:59:59;30.40;99.90
14934;DHT22;7560;51.364;12.384;2023-07-28T16:05:00;30.80;99.90
14934;DHT22;7560;51.364;12.384;2023-07-28T16:10:02;31.20;99.90
14934;DHT22;7560;51.364;12.384;2023-07-28T16:15:05;32.10;99.90
14934;DHT22;7560;51.364;12.384;2023-07-28T16:20:08;31.50;99.90
14934;DHT22;7560;51.364;12.384;2023-07-28T16:25:10;31.20;99.90
14934;DHT22;7560;51.364;12.384;2023-07-28T16:30:12;31.20;99.90
14934;DHT22;7560;51.364;12.384;2023-07-28T16:35:14;30.80;99.90
14934;DHT22;7560;51.364;12.384;2023-07-28T16:40:15;31.00;99.90
14934;DHT22;7560;51.364;12.384;2023-07-28T16:45:17;31.60;99.90
14934;DHT22;7560;51.364;12.384;2023-07-28T16:50:19;31.50;99.90
14934;DHT22;7560;51.364;12.384;2023-07-28T16:55:21;31.40;99.90
14934;DHT22;7560;51.364;12.384;2023-07-28T17:00:23;30.60;99.90
14934;DHT22;7560;51.364;12.384;2023-07-28T17:05:25;30.90;99.90
14934;DHT22;7560;51.364;12.384;2023-07-28T17:10:27;30.20;99.90
14934;DHT22;7560;51.364;12.384;2023-07-28T17:15:29;30.50;99.90
14934;DHT22;7560;51.364;12.384;2023-07-28T17:20:41;29.90;99.90
14934;DHT22;7560;51.364;12.384;2023-07-28T17:25:43;29.80;99.90
14934;DHT22;7560;51.364;12.384;2023-07-28T17:30:45;28.90;99.90
14934;DHT22;7560;51.364;12.384;2023-07-28T17:35:47;28.40;99.90
14934;DHT22;7560;51.364;12.384;2023-07-28T17:40:48;27.60;99.90
14934;DHT22;7560;51.364;12.384;2023-07-28T17:45:50;27.20;99.90
14934;DHT22;7560;51.364;12.384;2023-07-28T17:50:52;27.10;99.90
14934;DHT22;7560;51.364;12.384;2023-07-28T17:55:55;26.80;99.90
14934;DHT22;7560;51.364;12.384;2023-07-28T18:00:56;26.60;99.90
14934;DHT22;7560;51.364;12.384;2023-07-28T18:05:58;26.60;99.90
14934;DHT22;7560;51.364;12.384;2023-07-28T18:11:01;26.40;99.90
14934;DHT22;7560;51.364;12.384;2023-07-28T18:16:03;26.40;99.90
14934;DHT22;7560;51.364;12.384;2023-07-28T18:21:05;26.30;99.90
14934;DHT22;7560;51.364;12.384;2023-07-28T18:26:07;26.10;99.90
14934;DHT22;7560;51.364;12.384;2023-07-28T18:31:08;26.00;99.90
14934;DHT22;7560;51.364;12.384;2023-07-28T18:36:10;25.80;99.90
14934;DHT22;7560;51.364;12.384;2023-07-28T18:41:12;25.60;99.90
14934;DHT22;7560;51.364;12.384;2023-07-28T18:46:14;25.50;99.90
14934;DHT22;7560;51.364;12.384;2023-07-28T18:51:16;25.40;99.90
14934;DHT22;7560;51.364;12.384;2023-07-28T18:56:18;25.30;99.90
14934;DHT22;7560;51.364;12.384;2023-07-28T19:01:20;25.10;99.90
14934;DHT22;7560;51.364;12.384;2023-07-28T19:06:22;25.00;99.90
14934;DHT22;7560;51.364;12.384;2023-07-28T19:11:24;24.80;99.90
14934;DHT22;7560;51.364;12.384;2023-07-28T19:16:26;24.70;99.90
14934;DHT22;7560;51.364;12.384;2023-07-28T19:21:27;24.60;99.90
14934;DHT22;7560;51.364;12.384;2023-07-28T19:26:31;24.50;99.90
14934;DHT22;7560;51.364;12.384;2023-07-28T19:31:33;24.50;99.90
14934;DHT22;7560;51.364;12.384;2023-07-28T19:36:36;24.30;99.90
14934;DHT22;7560;51.364;12.384;2023-07-28T19:41:38;24.30;99.90
14934;DHT22;7560;51.364;12.384;2023-07-28T19:46:39;24.10;99.90
14934;DHT22;7560;51.364;12.384;2023-07-28T19:51:41;24.00;99.90
14934;DHT22;7560;51.364;12.384;2023-07-28T19:56:43;23.90;99.90
14934;DHT22;7560;51.364;12.384;2023-07-28T20:01:45;24.00;99.90
14934;DHT22;7560;51.364;12.384;2023-07-28T20:06:47;24.00;99.90
14934;DHT22;7560;51.364;12.384;2023-07-28T20:11:48;23.90;99.90
14934;DHT22;7560;51.364;12.384;2023-07-28T20:16:50;23.90;99.90
14934;DHT22;7560;51.364;12.384;2023-07-28T20:21:52;23.70;99.90
14934;DHT22;7560;51.364;12.384;2023-07-28T20:26:54;23.50;99.90
14934;DHT22;7560;51.364;12.384;2023-07-28T20:31:56;23.30;99.90
14934;DHT22;7560;51.364;12.384;2023-07-28T20:36:58;23.30;99.90
14934;DHT22;7560;51.364;12.384;2023-07-28T20:41:59;23.20;99.90
14934;DHT22;7560;51.364;12.384;2023-07-28T20:47:01;23.10;99.90
14934;DHT22;7560;51.364;12.384;2023-07-28T20:52:04;23.00;99.90
14934;DHT22;7560;51.364;12.384;2023-07-28T20:57:06;22.90;99.90
14934;DHT22;7560;51.364;12.384;2023-07-28T21:02:08;22.80;99.90
14934;DHT22;7560;51.364;12.384;2023-07-28T21:07:10;22.70;99.90
14934;DHT22;7560;51.364;12.384;2023-07-28T21:12:12;22.70;99.90
14934;DHT22;7560;51.364;12.384;2023-07-28T21:17:14;22.60;99.90
14934;DHT22;7560;51.364;12.384;2023-07-28T21:22:16;22.60;99.90
14934;DHT22;7560;51.364;12.384;2023-07-28T21:27:18;22.50;99.90
14934;DHT22;7560;51.364;12.384;2023-07-28T21:32:21;22.50;99.90
14934;DHT22;7560;51.364;12.384;2023-07-28T21:37:24;22.50;99.90
14934;DHT22;7560;51.364;12.384;2023-07-28T21:42:25;22.40;99.90
14934;DHT22;7560;51.364;12.384;2023-07-28T21:47:27;22.30;99.90
14934;DHT22;7560;51.364;12.384;2023-07-28T21:52:29;22.20;99.90
14934;DHT22;7560;51.364;12.384;2023-07-28T21:57:31;22.10;99.90
14934;DHT22;7560;51.364;12.384;2023-07-28T22:02:33;22.00;99.90
14934;DHT22;7560;51.364;12.384;2023-07-28T22:07:35;21.90;99.90
14934;DHT22;7560;51.364;12.384;2023-07-28T22:12:37;21.80;99.90
14934;DHT22;7560;51.364;12.384;2023-07-28T22:17:39;21.80;99.90
14934;DHT22;7560;51.364;12.384;2023-07-28T22:22:41;21.70;99.90
14934;DHT22;7560;51.364;12.384;2023-07-28T22:27:42;21.60;99.90
14934;DHT22;7560;51.364;12.384;2023-07-28T22:32:44;21.50;99.90
14934;DHT22;7560;51.364;12.384;2023-07-28T22:37:46;21.50;99.90
14934;DHT22;7560;51.364;12.384;2023-07-28T22:42:48;21.40;99.90
14934;DHT22;7560;51.364;12.384;2023-07-28T22:47:49;21.40;99.90
14934;DHT22;7560;51.364;12.384;2023-07-28T22:52:51;21.30;99.90
14934;DHT22;7560;51.364;12.384;2023-07-28T22:57:53;21.30;99.90
14934;DHT22;7560;51.364;12.384;2023-07-28T23:02:55;21.20;99.90
14934;DHT22;7560;51.364;12.384;2023-07-28T23:07:56;21.10;99.90
14934;DHT22;7560;51.364;12.384;2023-07-28T23:12:58;21.00;99.90
14934;DHT22;7560;51.364;12.384;2023-07-28T23:18:00;21.00;99.90
14934;DHT22;7560;51.364;12.384;2023-07-28T23:23:04;20.90;99.90
14934;DHT22;7560;51.364;12.384;2023-07-28T23:28:06;20.90;99.90
14934;DHT22;7560;51.364;12.384;2023-07-28T23:33:08;20.90;99.90
14934;DHT22;7560;51.364;12.384;2023-07-28T23:38:09;20.90;99.90
14934;DHT22;7560;51.364;12.384;2023-07-28T23:43:11;20.90;99.90
14934;DHT22;7560;51.364;12.384;2023-07-28T23:48:13;21.00;99.90
14934;DHT22;7560;51.364;12.384;2023-07-28T23:53:15;21.00;99.90
14934;DHT22;7560;51.364;12.384;2023-07-28T23:58:17;21.00;99.90
